Time;durP1;ratioP1;P1;durP2;ratioP2;P2;SDS_P1;SDS_P2;PMS_P1;PMS_P2;Temp;Humidity;BMP_temperature;BMP_pressure;BME280_temperature;BME280_humidity;BME280_pressure;Samples;Min_cycle;Max_cycle;Signal;HPM_P1;HPM_P2
2021/12/09 00:01:56;;;;;;;11.90;8.65;;;0.90;99.90;;;;;;4993486;28;20382;-80
2021/12/09 00:04:31;;;;;;;13.68;8.82;;;1.00;99.90;;;;;;4993445;28;20459;-80
2021/12/09 00:07:00;;;;;;;12.98;8.70;;;0.90;99.90;;;;;;4993867;28;20039;-80
2021/12/09 00:09:32;;;;;;;13.07;9.15;;;0.90;99.90;;;;;;4994027;28;20141;-80
2021/12/09 00:11:59;;;;;;;14.20;8.68;;;0.90;99.90;;;;;;4991922;28;20097;-80
2021/12/09 00:14:33;;;;;;;13.38;9.68;;;0.90;99.90;;;;;;4992160;28;20504;-80
2021/12/09 00:17:05;;;;;;;13.10;9.05;;;0.90;99.90;;;;;;4992201;28;20069;-80
2021/12/09 00:19:34;;;;;;;14.73;9.55;;;0.90;99.90;;;;;;4992249;28;20050;-80
2021/12/09 00:22:11;;;;;;;14.02;8.40;;;0.90;99.90;;;;;;4976538;28;20046;-80
2021/12/09 00:24:38;;;;;;;12.35;8.68;;;0.90;99.90;;;;;;4992620;28;20143;-80
2021/12/09 00:27:10;;;;;;;12.18;8.75;;;0.90;99.90;;;;;;5009131;28;20133;-80
2021/12/09 00:29:36;;;;;;;12.90;8.40;;;0.90;99.90;;;;;;4994837;28;20039;-80
2021/12/09 00:32:04;;;;;;;13.07;8.80;;;0.90;99.90;;;;;;4993422;28;20070;-80
2021/12/09 00:34:34;;;;;;;12.38;8.70;;;0.90;99.90;;;;;;4993046;28;20078;-81
2021/12/09 00:37:54;;;;;;;11.38;7.80;;;0.90;99.90;;;;;;4996011;28;20459;-81
2021/12/09 00:39:57;;;;;;;13.13;8.65;;;0.90;99.90;;;;;;4994496;28;20049;-80
2021/12/09 00:42:29;;;;;;;12.45;7.80;;;0.90;99.90;;;;;;4974405;28;20098;-80
2021/12/09 00:44:56;;;;;;;12.55;8.40;;;0.90;99.90;;;;;;4991390;28;20092;-80
2021/12/09 00:47:23;;;;;;;12.98;8.90;;;1.00;99.90;;;;;;5025929;28;20493;-80
2021/12/09 00:49:56;;;;;;;10.68;7.60;;;1.00;99.90;;;;;;5011507;28;20125;-80
2021/12/09 00:52:28;;;;;;;10.77;7.40;;;1.00;99.90;;;;;;4979497;28;20133;-81
2021/12/09 00:55:01;;;;;;;12.18;8.25;;;1.00;99.90;;;;;;5010998;28;20128;-81
2021/12/09 00:57:28;;;;;;;12.63;8.23;;;1.00;99.90;;;;;;5019978;28;20096;-80
2021/12/09 00:59:55;;;;;;;11.90;7.93;;;1.00;99.90;;;;;;4994432;28;20517;-80
2021/12/09 01:02:22;;;;;;;13.25;8.70;;;1.00;99.90;;;;;;5027907;28;20042;-80
2021/12/09 01:04:49;;;;;;;14.18;8.43;;;1.00;99.90;;;;;;4996431;28;20131;-81
2021/12/09 01:07:21;;;;;;;13.27;8.38;;;1.00;99.90;;;;;;5028873;28;20077;-80
2021/12/09 01:09:47;;;;;;;14.57;8.27;;;1.00;99.90;;;;;;5029037;28;20050;-80
2021/12/09 01:12:14;;;;;;;11.32;8.13;;;1.00;99.90;;;;;;5029740;28;20054;-80
2021/12/09 01:14:46;;;;;;;10.15;7.63;;;1.00;99.90;;;;;;5029734;28;20089;-80
2021/12/09 01:17:19;;;;;;;14.02;8.32;;;0.90;99.90;;;;;;4998103;28;20054;-80
2021/12/09 01:19:45;;;;;;;12.07;6.75;;;1.00;99.90;;;;;;5014199;28;20520;-80
2021/12/09 01:22:12;;;;;;;11.13;7.40;;;1.00;99.90;;;;;;5014486;28;20069;-80
2021/12/09 01:24:39;;;;;;;10.15;6.68;;;1.00;99.90;;;;;;5030739;28;20046;-80
2021/12/09 01:27:06;;;;;;;10.88;6.30;;;1.00;99.90;;;;;;5014707;28;20046;-80
2021/12/09 01:29:39;;;;;;;9.70;6.32;;;1.00;99.90;;;;;;5030392;28;20046;-80
2021/12/09 01:32:13;;;;;;;9.93;6.43;;;1.00;99.90;;;;;;5029059;28;20564;-79
2021/12/09 01:34:45;;;;;;;8.07;5.78;;;1.00;99.90;;;;;;5028412;28;20073;-80
2021/12/09 01:37:16;;;;;;;10.73;6.07;;;1.10;99.90;;;;;;4996187;28;20055;-80
2021/12/09 01:39:48;;;;;;;8.82;6.18;;;1.10;99.90;;;;;;5028863;28;20544;-80
2021/12/09 01:42:17;;;;;;;10.80;7.13;;;1.10;99.90;;;;;;5010165;28;20093;-79
2021/12/09 01:44:48;;;;;;;9.73;6.68;;;1.00;99.90;;;;;;5025933;28;20058;-79
2021/12/09 01:47:15;;;;;;;10.40;6.47;;;1.00;99.90;;;;;;5010365;28;20114;-79
2021/12/09 01:49:47;;;;;;;9.43;5.95;;;1.00;99.90;;;;;;5026187;28;20389;-79
2021/12/09 01:52:15;;;;;;;10.00;6.47;;;1.00;99.90;;;;;;5010139;28;20381;-79
2021/12/09 01:54:42;;;;;;;11.05;6.18;;;1.00;99.90;;;;;;5009961;28;20463;-79
2021/12/09 01:57:14;;;;;;;9.15;6.15;;;1.00;99.90;;;;;;5011074;28;20042;-79
2021/12/09 01:59:41;;;;;;;8.23;5.65;;;1.00;99.90;;;;;;5009719;28;20110;-79
2021/12/09 02:02:13;;;;;;;10.40;6.07;;;1.00;99.90;;;;;;5009072;28;20039;-79
2021/12/09 02:04:40;;;;;;;10.75;5.88;;;1.00;99.90;;;;;;5025875;28;20046;-79
2021/12/09 02:07:06;;;;;;;9.82;6.03;;;1.00;99.90;;;;;;5008643;28;20137;-78
2021/12/09 02:09:35;;;;;;;7.72;5.45;;;1.00;99.90;;;;;;5025713;28;20043;-79
2021/12/09 02:12:04;;;;;;;8.00;5.82;;;1.00;99.90;;;;;;5009244;28;20061;-79
2021/12/09 02:14:31;;;;;;;8.75;5.43;;;1.00;99.90;;;;;;5009223;28;20424;-79
2021/12/09 02:16:58;;;;;;;9.77;6.57;;;0.90;99.90;;;;;;5009021;28;20327;-79
2021/12/09 02:19:30;;;;;;;8.85;5.72;;;0.90;99.90;;;;;;5024574;28;20046;-79
2021/12/09 02:21:57;;;;;;;9.57;6.10;;;0.90;99.90;;;;;;5008797;28;20056;-79
2021/12/09 02:24:25;;;;;;;10.35;6.05;;;0.90;99.90;;;;;;5008822;28;20062;-79
2021/12/09 02:26:52;;;;;;;9.95;6.18;;;1.00;99.90;;;;;;5007881;28;20045;-79
2021/12/09 02:29:25;;;;;;;11.05;5.97;;;1.00;99.90;;;;;;5008475;28;20066;-79
2021/12/09 02:31:56;;;;;;;13.80;7.30;;;1.00;99.90;;;;;;5009175;28;20050;-79
2021/12/09 02:34:24;;;;;;;10.18;6.28;;;1.00;99.90;;;;;;5009100;28;20049;-79
2021/12/09 02:36:52;;;;;;;10.30;6.20;;;0.90;99.90;;;;;;5009035;28;20049;-79
2021/12/09 02:39:20;;;;;;;11.18;5.97;;;0.90;99.90;;;;;;5008334;28;20050;-80
2021/12/09 02:41:49;;;;;;;9.88;6.20;;;0.90;99.90;;;;;;5008416;28;20047;-80
2021/12/09 02:44:19;;;;;;;12.98;6.68;;;0.90;99.90;;;;;;5008612;28;20488;-80
2021/12/09 02:46:52;;;;;;;10.15;6.63;;;0.90;99.90;;;;;;5008227;28;20129;-80
2021/12/09 02:49:28;;;;;;;11.13;6.50;;;0.90;99.90;;;;;;5007928;28;20516;-80
2021/12/09 02:51:58;;;;;;;9.52;6.03;;;0.90;99.90;;;;;;5009831;28;20112;-80
2021/12/09 02:54:31;;;;;;;9.80;6.93;;;0.90;99.90;;;;;;5007952;28;20048;-80
2021/12/09 02:57:03;;;;;;;9.73;6.32;;;0.90;99.90;;;;;;5009187;28;20073;-80
2021/12/09 02:59:32;;;;;;;8.68;5.85;;;0.90;99.90;;;;;;5008961;28;20120;-80
2021/12/09 03:02:07;;;;;;;10.38;6.18;;;0.80;99.90;;;;;;5008271;28;20046;-80
2021/12/09 03:04:41;;;;;;;11.90;6.20;;;0.80;99.90;;;;;;5009034;28;20062;-80
2021/12/09 03:07:18;;;;;;;9.73;6.63;;;0.80;99.90;;;;;;5008684;28;20104;-80
2021/12/09 03:09:53;;;;;;;9.32;6.10;;;0.80;99.90;;;;;;5009155;28;20043;-81
2021/12/09 03:12:33;;;;;;;15.05;7.28;;;0.80;99.90;;;;;;4992677;28;20084;-81
2021/12/09 03:15:04;;;;;;;10.10;6.85;;;0.80;99.90;;;;;;5009421;28;20543;-81
2021/12/09 03:17:31;;;;;;;11.48;7.18;;;0.80;99.90;;;;;;5010767;28;20058;-81
2021/12/09 03:19:58;;;;;;;9.68;6.22;;;0.80;99.90;;;;;;5010365;28;20137;-80
2021/12/09 03:22:26;;;;;;;10.25;6.47;;;0.80;99.90;;;;;;5010109;28;20574;-81
2021/12/09 03:24:53;;;;;;;10.48;6.00;;;0.70;99.90;;;;;;5010887;28;20497;-81
2021/12/09 03:27:20;;;;;;;9.63;6.65;;;0.80;99.90;;;;;;5011969;28;20513;-81
2021/12/09 03:29:47;;;;;;;12.32;6.55;;;0.70;99.90;;;;;;5012744;28;20046;-81
2021/12/09 03:32:17;;;;;;;11.27;7.05;;;0.70;99.90;;;;;;5014675;28;20066;-81
2021/12/09 03:34:45;;;;;;;10.48;6.72;;;0.70;99.90;;;;;;5015670;28;20145;-81
2021/12/09 03:37:18;;;;;;;11.55;6.40;;;0.80;99.90;;;;;;5016446;28;20073;-81
2021/12/09 03:39:46;;;;;;;9.25;5.72;;;0.80;99.90;;;;;;5014731;28;20050;-81
2021/12/09 03:42:16;;;;;;;9.77;5.75;;;0.80;99.90;;;;;;5017134;28;20501;-81
2021/12/09 03:44:46;;;;;;;8.90;6.00;;;0.80;99.90;;;;;;5014637;28;20129;-81
2021/12/09 03:47:16;;;;;;;7.93;4.88;;;0.80;99.90;;;;;;5009553;28;20046;-81
2021/12/09 03:49:49;;;;;;;7.85;4.65;;;0.80;99.90;;;;;;5009571;28;20050;-81
2021/12/09 03:52:16;;;;;;;6.85;4.60;;;0.80;99.90;;;;;;5009289;28;20050;-81
2021/12/09 03:54:45;;;;;;;6.53;4.28;;;0.80;99.90;;;;;;4993066;28;20050;-81
2021/12/09 03:57:14;;;;;;;8.75;5.20;;;0.80;99.90;;;;;;4994205;28;20068;-81
2021/12/09 03:59:43;;;;;;;6.55;4.55;;;0.90;99.90;;;;;;4993152;28;20050;-81
2021/12/09 04:08:04;;;;;;;8.20;5.45;;;0.90;99.90;;;;;;5282317;23;20060;-80
2021/12/09 04:10:37;;;;;;;8.27;4.95;;;0.90;99.90;;;;;;4897416;29;20427;-80
2021/12/09 04:13:04;;;;;;;7.07;4.38;;;0.80;99.90;;;;;;4897385;29;20048;-80
2021/12/09 04:15:36;;;;;;;7.13;4.68;;;0.80;99.90;;;;;;4897161;29;20048;-81
2021/12/09 04:18:09;;;;;;;6.40;4.47;;;0.80;99.90;;;;;;4897883;29;20503;-80
2021/12/09 04:20:37;;;;;;;6.38;4.30;;;0.80;99.90;;;;;;4897071;29;20049;-80
2021/12/09 04:23:05;;;;;;;6.45;3.38;;;0.80;99.90;;;;;;4896752;29;20104;-80
2021/12/09 04:25:34;;;;;;;5.15;3.63;;;0.80;99.90;;;;;;4896877;29;20052;-80
2021/12/09 04:28:02;;;;;;;4.88;3.38;;;0.80;99.90;;;;;;4896825;29;20507;-80
2021/12/09 04:30:34;;;;;;;5.05;3.40;;;0.80;99.90;;;;;;4898937;29;20045;-80
2021/12/09 04:33:01;;;;;;;4.72;3.38;;;0.90;99.90;;;;;;4903213;29;20508;-80
2021/12/09 04:35:29;;;;;;;5.13;3.80;;;0.80;99.90;;;;;;4903219;29;20044;-80
2021/12/09 04:37:56;;;;;;;6.05;3.50;;;0.90;99.90;;;;;;4903095;29;20052;-80
2021/12/09 04:40:28;;;;;;;4.60;3.13;;;0.80;99.90;;;;;;4903791;29;20059;-80
2021/12/09 04:42:56;;;;;;;5.47;3.50;;;0.90;99.90;;;;;;4902773;29;20053;-80
2021/12/09 04:45:23;;;;;;;5.15;3.78;;;0.90;99.90;;;;;;4918519;29;20059;-80
2021/12/09 04:47:50;;;;;;;5.60;3.58;;;0.90;99.90;;;;;;4903945;29;20044;-80
2021/12/09 04:50:18;;;;;;;4.93;3.33;;;0.90;99.90;;;;;;4887358;29;20476;-80
2021/12/09 04:52:45;;;;;;;5.28;3.50;;;0.90;99.90;;;;;;4887136;29;20052;-80
2021/12/09 04:55:18;;;;;;;5.93;3.60;;;0.90;99.90;;;;;;4887483;29;20056;-79
2021/12/09 04:57:50;;;;;;;5.43;3.60;;;0.90;99.90;;;;;;4903115;29;20472;-80
2021/12/09 05:00:22;;;;;;;5.97;3.63;;;1.00;99.90;;;;;;4902713;29;20052;-80
2021/12/09 05:03:10;;;;;;;6.03;4.60;;;1.00;99.90;;;;;;4902515;29;20052;-80
2021/12/09 05:05:46;;;;;;;5.88;3.95;;;1.00;99.90;;;;;;4901749;29;20044;-78
2021/12/09 05:08:16;;;;;;;6.95;4.85;;;0.90;99.90;;;;;;4896446;29;20491;-78
2021/12/09 05:11:09;;;;;;;7.00;4.55;;;0.90;99.90;;;;;;4906286;29;20079;-78
2021/12/09 05:13:38;;;;;;;6.40;4.40;;;0.90;99.90;;;;;;4915725;29;20100;-79
2021/12/09 05:16:08;;;;;;;6.30;4.05;;;0.90;99.90;;;;;;4886926;29;20139;-79
2021/12/09 05:18:38;;;;;;;8.25;5.18;;;0.90;99.90;;;;;;4887183;29;20186;-79
2021/12/09 05:21:19;;;;;;;6.97;4.72;;;0.90;99.90;;;;;;5064557;28;20375;-77
2021/12/09 05:23:46;;;;;;;7.63;5.32;;;0.90;99.90;;;;;;5065960;28;20091;-77
2021/12/09 05:26:14;;;;;;;7.43;4.97;;;0.90;99.90;;;;;;5050437;28;20095;-77
2021/12/09 05:28:41;;;;;;;5.63;4.30;;;0.90;99.90;;;;;;5039309;28;20062;-77
2021/12/09 05:33:59;;;;;;;6.82;4.63;;;0.90;99.90;;;;;;5053103;28;20125;-77
2021/12/09 05:36:30;;;;;;;7.70;5.18;;;0.90;99.90;;;;;;5031460;28;20136;-76
2021/12/09 05:38:58;;;;;;;8.27;5.35;;;0.90;99.90;;;;;;5032703;28;20474;-79
2021/12/09 05:41:31;;;;;;;8.73;5.70;;;0.90;99.90;;;;;;5035307;28;20392;-78
2021/12/09 05:44:07;;;;;;;7.32;5.13;;;0.90;99.90;;;;;;5031863;28;20056;-78
2021/12/09 05:46:38;;;;;;;9.10;5.72;;;0.90;99.90;;;;;;5030766;28;20046;-77
2021/12/09 05:49:12;;;;;;;9.52;5.97;;;0.90;99.90;;;;;;5015714;28;20131;-77
2021/12/09 05:51:41;;;;;;;8.30;6.00;;;0.80;99.90;;;;;;5030331;28;20658;-77
2021/12/09 05:54:13;;;;;;;9.32;5.55;;;0.80;99.90;;;;;;5048183;28;20457;-76
2021/12/09 05:56:40;;;;;;;8.57;5.38;;;0.80;99.90;;;;;;5058064;28;20045;-76
2021/12/09 05:59:12;;;;;;;8.18;5.20;;;0.90;99.90;;;;;;5060312;28;20092;-76
2021/12/09 06:01:44;;;;;;;8.93;5.70;;;0.90;99.90;;;;;;5057290;28;20040;-77
2021/12/09 06:04:11;;;;;;;7.40;5.15;;;0.80;99.90;;;;;;5047576;28;20095;-77
2021/12/09 06:06:39;;;;;;;7.15;5.10;;;0.80;99.90;;;;;;5059225;28;20065;-78
2021/12/09 06:09:11;;;;;;;7.45;4.43;;;0.80;99.90;;;;;;5057700;28;20052;-77
2021/12/09 06:11:40;;;;;;;6.93;4.53;;;0.80;99.90;;;;;;5040899;28;20047;-77
2021/12/09 06:14:13;;;;;;;7.25;4.65;;;0.80;99.90;;;;;;5033103;28;20044;-77
2021/12/09 06:16:45;;;;;;;6.13;4.68;;;0.80;99.90;;;;;;5042875;28;20068;-77
2021/12/09 06:19:18;;;;;;;6.20;4.30;;;0.80;99.90;;;;;;5041453;28;20033;-76
2021/12/09 06:21:52;;;;;;;7.85;4.72;;;0.80;99.90;;;;;;5049942;28;20073;-75
2021/12/09 06:24:24;;;;;;;5.43;3.95;;;0.80;99.90;;;;;;5026651;28;20045;-77
2021/12/09 06:26:56;;;;;;;6.07;3.70;;;0.80;99.90;;;;;;5028109;28;20065;-76
2021/12/09 06:29:28;;;;;;;4.80;3.35;;;0.80;99.90;;;;;;5036466;28;20163;-76
2021/12/09 06:32:00;;;;;;;5.72;3.92;;;0.90;99.90;;;;;;5030754;28;20666;-76
2021/12/09 06:34:27;;;;;;;5.20;3.67;;;0.80;99.90;;;;;;5031550;28;20065;-76
2021/12/09 06:36:54;;;;;;;5.82;4.07;;;0.90;99.90;;;;;;5051982;28;20503;-76
2021/12/09 06:39:21;;;;;;;5.05;3.28;;;0.80;99.90;;;;;;5023594;28;20069;-76
2021/12/09 06:41:54;;;;;;;5.18;3.83;;;0.80;99.90;;;;;;5049247;28;20095;-76
2021/12/09 06:44:21;;;;;;;4.70;3.50;;;0.90;99.90;;;;;;5020227;28;20037;-76
2021/12/09 06:46:55;;;;;;;5.57;3.67;;;0.80;99.90;;;;;;5006087;28;20045;-75
2021/12/09 06:49:23;;;;;;;7.03;4.30;;;0.80;99.90;;;;;;5010209;28;20041;-77
2021/12/09 06:51:55;;;;;;;6.63;4.82;;;0.80;99.90;;;;;;5031695;28;20132;-77
2021/12/09 06:54:27;;;;;;;7.35;5.15;;;0.70;99.90;;;;;;5047556;28;20095;-76
2021/12/09 06:56:54;;;;;;;8.07;5.32;;;0.80;99.90;;;;;;5052796;28;20045;-76
2021/12/09 06:59:21;;;;;;;9.30;5.35;;;0.80;99.90;;;;;;5035150;28;20068;-78
2021/12/09 07:01:53;;;;;;;7.45;5.43;;;0.80;99.90;;;;;;5032896;28;20132;-76
2021/12/09 07:04:25;;;;;;;8.73;5.70;;;0.80;99.90;;;;;;5016381;28;20056;-76
2021/12/09 07:06:57;;;;;;;10.50;6.78;;;0.80;99.90;;;;;;5000221;28;20038;-76
2021/12/09 07:09:30;;;;;;;10.50;6.82;;;0.90;99.90;;;;;;5015527;28;20033;-76
2021/12/09 07:12:02;;;;;;;11.25;7.22;;;0.90;99.90;;;;;;5030068;28;20037;-76
2021/12/09 07:14:32;;;;;;;12.93;8.98;;;0.90;99.90;;;;;;5014360;28;20030;-78
2021/12/09 07:17:05;;;;;;;12.65;8.43;;;0.90;99.90;;;;;;5001728;28;20093;-77
2021/12/09 07:19:32;;;;;;;14.95;8.15;;;0.90;99.90;;;;;;5024167;28;20046;-77
2021/12/09 07:22:04;;;;;;;15.95;8.85;;;1.00;99.90;;;;;;5014770;28;20046;-76
2021/12/09 07:24:31;;;;;;;15.85;8.95;;;1.00;99.90;;;;;;5031280;28;20107;-76
2021/12/09 07:26:59;;;;;;;18.27;10.13;;;1.00;99.90;;;;;;5014421;28;20038;-75
2021/12/09 07:29:28;;;;;;;16.00;9.02;;;1.00;99.90;;;;;;5016092;28;20038;-76
2021/12/09 07:31:56;;;;;;;13.88;8.88;;;1.00;99.90;;;;;;5015766;28;20514;-77
2021/12/09 07:34:23;;;;;;;16.95;10.55;;;1.00;99.90;;;;;;5015923;28;20099;-76
2021/12/09 07:36:50;;;;;;;15.73;9.10;;;1.00;99.90;;;;;;5015739;28;20079;-75
2021/12/09 07:39:18;;;;;;;15.23;9.90;;;1.00;99.90;;;;;;5015930;28;20107;-76
2021/12/09 07:41:45;;;;;;;17.42;10.40;;;1.10;99.90;;;;;;5015957;28;20427;-76
2021/12/09 07:44:17;;;;;;;17.48;10.40;;;1.10;99.90;;;;;;5014564;28;20052;-75
2021/12/09 07:46:45;;;;;;;32.33;19.35;;;1.00;99.90;;;;;;4996467;28;20046;-76
2021/12/09 07:49:12;;;;;;;42.92;21.85;;;1.00;99.90;;;;;;5005155;28;20484;-78
2021/12/09 07:51:44;;;;;;;23.15;13.77;;;1.10;99.90;;;;;;5015989;28;20103;-76
2021/12/09 07:54:12;;;;;;;16.13;10.45;;;1.10;99.90;;;;;;5031587;28;20057;-76
2021/12/09 07:56:43;;;;;;;12.82;8.70;;;1.10;99.90;;;;;;5010482;28;20054;-77
2021/12/09 07:59:13;;;;;;;18.25;10.38;;;1.10;99.90;;;;;;5028373;28;20129;-77
2021/12/09 08:01:47;;;;;;;20.92;9.70;;;1.10;99.90;;;;;;5011371;28;20046;-76
2021/12/09 08:04:14;;;;;;;14.07;9.38;;;1.10;99.90;;;;;;5010855;28;20046;-78
2021/12/09 08:06:49;;;;;;;13.98;9.35;;;1.20;99.90;;;;;;5012947;28;20523;-78
2021/12/09 08:09:17;;;;;;;17.05;9.65;;;1.10;99.90;;;;;;5015136;28;20072;-77
2021/12/09 08:11:47;;;;;;;15.10;9.18;;;1.10;99.90;;;;;;5014893;28;20053;-78
2021/12/09 08:14:19;;;;;;;15.10;9.05;;;1.20;99.90;;;;;;5016379;28;20051;-79
2021/12/09 08:16:56;;;;;;;17.63;10.38;;;1.20;99.90;;;;;;5028472;28;20104;-79
2021/12/09 08:19:23;;;;;;;13.43;8.38;;;1.20;99.90;;;;;;5023879;28;20049;-78
2021/12/09 08:21:50;;;;;;;19.17;9.73;;;1.20;99.90;;;;;;5014940;28;20068;-77
2021/12/09 08:24:18;;;;;;;18.65;9.38;;;1.30;99.90;;;;;;5025682;28;20087;-78
2021/12/09 08:26:45;;;;;;;13.82;9.18;;;1.30;99.90;;;;;;5014212;28;20077;-78
2021/12/09 08:29:13;;;;;;;15.65;9.18;;;1.30;99.90;;;;;;5001889;28;20054;-78
2021/12/09 08:31:45;;;;;;;13.90;8.82;;;1.30;99.90;;;;;;5027123;28;20455;-77
2021/12/09 08:34:12;;;;;;;12.07;7.78;;;1.40;99.90;;;;;;5011168;28;20076;-78
2021/12/09 08:36:45;;;;;;;11.20;7.40;;;1.40;99.90;;;;;;4996165;28;20132;-77
2021/12/09 08:39:12;;;;;;;13.68;8.43;;;1.40;99.90;;;;;;5013992;28;20075;-78
2021/12/09 08:41:46;;;;;;;11.57;7.60;;;1.40;99.90;;;;;;5015724;28;20050;-78
2021/12/09 08:44:18;;;;;;;12.63;7.25;;;1.40;99.90;;;;;;5015078;28;20046;-75
2021/12/09 08:46:45;;;;;;;11.43;7.15;;;1.50;99.90;;;;;;5030346;28;20041;-78
2021/12/09 08:49:17;;;;;;;10.75;7.07;;;1.50;99.90;;;;;;5030414;28;20073;-78
2021/12/09 08:51:44;;;;;;;11.82;6.53;;;1.50;99.90;;;;;;5011267;28;20092;-78
2021/12/09 08:54:12;;;;;;;11.43;5.95;;;1.50;99.90;;;;;;5014603;28;20491;-78
2021/12/09 08:56:39;;;;;;;9.65;6.38;;;1.60;99.90;;;;;;5022568;28;20046;-77
2021/12/09 08:59:07;;;;;;;11.82;6.68;;;1.60;99.90;;;;;;5031360;28;20045;-77
2021/12/09 09:01:35;;;;;;;10.15;6.65;;;1.60;99.90;;;;;;5008552;28;20572;-79
2021/12/09 09:04:03;;;;;;;13.20;6.57;;;1.60;99.90;;;;;;5014217;28;20471;-74
2021/12/09 09:06:36;;;;;;;14.90;6.85;;;1.70;99.90;;;;;;5015173;28;20153;-78
2021/12/09 09:09:05;;;;;;;10.40;6.25;;;1.70;99.90;;;;;;5014166;28;20065;-75
2021/12/09 09:11:32;;;;;;;13.68;6.97;;;1.70;99.90;;;;;;5013712;28;20115;-79
2021/12/09 09:14:01;;;;;;;11.45;5.95;;;1.70;99.90;;;;;;5014359;28;20045;-78
2021/12/09 09:16:33;;;;;;;11.23;6.88;;;1.70;99.90;;;;;;5025303;28;20050;-78
2021/12/09 09:19:05;;;;;;;12.23;5.93;;;1.70;99.90;;;;;;5000998;28;20137;-77
2021/12/09 09:21:37;;;;;;;11.77;5.32;;;1.70;99.90;;;;;;5012028;28;20076;-77
2021/12/09 09:24:04;;;;;;;9.98;5.30;;;1.80;99.90;;;;;;5011777;28;20104;-76
2021/12/09 09:26:32;;;;;;;10.57;5.28;;;1.80;99.90;;;;;;5013981;28;20080;-77
2021/12/09 09:29:12;;;;;;;8.98;5.20;;;1.90;99.90;;;;;;5030945;28;20542;-78
2021/12/09 09:31:40;;;;;;;10.77;4.88;;;1.90;99.90;;;;;;5033204;28;20482;-76
2021/12/09 09:34:14;;;;;;;9.55;5.10;;;1.90;99.90;;;;;;5029876;28;20442;-78
2021/12/09 09:36:48;;;;;;;9.18;5.78;;;1.90;99.90;;;;;;5035841;28;20042;-79
2021/12/09 09:39:20;;;;;;;8.13;4.93;;;1.90;99.90;;;;;;5039642;28;20049;-77
2021/12/09 09:42:17;;;;;;;8.88;4.25;;;1.90;99.90;;;;;;5053438;28;20091;-78
2021/12/09 09:44:54;;;;;;;9.60;4.40;;;1.90;99.90;;;;;;5049346;28;20038;-77
2021/12/09 09:47:24;;;;;;;7.95;4.90;;;2.00;99.90;;;;;;5015542;28;20099;-77
2021/12/09 09:49:52;;;;;;;14.18;5.57;;;2.00;99.90;;;;;;5033194;28;20073;-78
2021/12/09 09:52:20;;;;;;;10.75;4.75;;;2.00;99.90;;;;;;5015149;28;20092;-77
2021/12/09 09:54:48;;;;;;;7.72;4.82;;;2.00;99.90;;;;;;5021931;28;20577;-77
2021/12/09 09:57:15;;;;;;;7.20;5.05;;;2.00;99.90;;;;;;5015455;28;20054;-77
2021/12/09 09:59:42;;;;;;;10.05;4.30;;;2.00;99.90;;;;;;5024580;28;20057;-77
2021/12/09 10:02:18;;;;;;;7.88;4.57;;;2.00;99.90;;;;;;5039033;28;20045;-77
2021/12/09 10:04:57;;;;;;;7.45;4.53;;;2.00;99.90;;;;;;5038016;28;20148;-77
2021/12/09 10:07:25;;;;;;;10.57;5.10;;;2.00;99.90;;;;;;5053675;28;20033;-77
2021/12/09 10:09:54;;;;;;;9.40;4.72;;;2.00;99.90;;;;;;5014431;28;20060;-77
2021/12/09 10:12:21;;;;;;;10.20;5.15;;;2.00;99.90;;;;;;5013340;28;20038;-78
2021/12/09 10:14:52;;;;;;;7.03;5.03;;;2.00;99.90;;;;;;5028388;28;20050;-77
2021/12/09 10:17:26;;;;;;;6.85;4.05;;;2.00;99.90;;;;;;5035736;28;20037;-77
2021/12/09 10:20:05;;;;;;;11.43;5.10;;;2.00;99.90;;;;;;5024906;28;20410;-77
2021/12/09 10:22:34;;;;;;;9.75;5.38;;;2.00;99.90;;;;;;5036838;28;20137;-75
2021/12/09 10:25:15;;;;;;;14.13;4.90;;;2.00;99.90;;;;;;5038195;28;20073;-77
2021/12/09 10:27:58;;;;;;;10.48;4.00;;;2.00;99.90;;;;;;5013551;28;20125;-77
2021/12/09 10:30:25;;;;;;;8.27;4.15;;;2.10;99.90;;;;;;5012260;28;20054;-77
2021/12/09 10:33:02;;;;;;;6.75;4.60;;;2.10;99.90;;;;;;5032913;28;20038;-77
2021/12/09 10:35:29;;;;;;;12.38;4.40;;;2.10;99.90;;;;;;5011465;28;20091;-77
2021/12/09 10:38:03;;;;;;;7.97;5.35;;;2.10;99.90;;;;;;5029247;28;20573;-77
2021/12/09 10:40:30;;;;;;;9.07;5.13;;;2.10;99.90;;;;;;5026394;28;20469;-77
2021/12/09 10:43:03;;;;;;;7.72;3.67;;;2.10;99.90;;;;;;5025424;28;20037;-77
2021/12/09 10:45:38;;;;;;;11.73;4.45;;;2.20;99.90;;;;;;5011201;28;20128;-77
2021/12/09 10:48:20;;;;;;;9.02;4.38;;;2.20;99.90;;;;;;5010323;28;20089;-77
2021/12/09 10:53:47;;;;;;;6.80;4.10;;;2.30;99.90;;;;;;5031343;28;20072;-77
2021/12/09 10:56:31;;;;;;;11.43;5.57;;;2.20;99.90;;;;;;5020970;28;20069;-77
2021/12/09 10:58:58;;;;;;;9.13;4.78;;;2.30;99.90;;;;;;5014856;28;21122;-77
2021/12/09 11:01:30;;;;;;;12.63;4.45;;;2.20;99.90;;;;;;5012895;28;20038;-77
2021/12/09 11:04:02;;;;;;;8.45;4.57;;;2.30;99.90;;;;;;5012375;28;20047;-77
2021/12/09 11:06:34;;;;;;;6.40;4.38;;;2.40;99.90;;;;;;5030805;28;20069;-77
2021/12/09 11:09:06;;;;;;;5.78;4.00;;;2.50;99.90;;;;;;5016449;28;20036;-77
2021/12/09 11:11:45;;;;;;;8.57;4.50;;;2.50;99.90;;;;;;5024001;28;20045;-76
2021/12/09 11:14:14;;;;;;;8.65;4.57;;;2.40;99.90;;;;;;5013153;28;20053;-76
2021/12/09 11:17:06;;;;;;;9.30;4.45;;;2.40;99.90;;;;;;5014911;28;20055;-77
2021/12/09 11:22:05;;;;;;;7.32;4.05;;;2.20;99.90;;;;;;5015650;28;20134;-76
2021/12/09 11:24:42;;;;;;;6.88;3.75;;;2.20;99.90;;;;;;5035868;28;20129;-76
2021/12/09 11:27:22;;;;;;;7.15;4.20;;;2.20;99.90;;;;;;5026592;28;20065;-76
2021/12/09 11:29:53;;;;;;;11.68;4.32;;;2.20;99.90;;;;;;5034415;28;20065;-77
2021/12/09 11:32:50;;;;;;;8.57;4.90;;;2.20;99.90;;;;;;5021172;28;20045;-76
2021/12/09 11:35:30;;;;;;;8.05;4.60;;;2.20;99.90;;;;;;5011916;28;20044;-76
2021/12/09 11:40:50;;;;;;;6.63;4.30;;;2.30;99.90;;;;;;5025501;28;20049;-76
2021/12/09 11:43:23;;;;;;;9.60;5.43;;;2.30;99.90;;;;;;5024155;28;20065;-75
2021/12/09 11:45:57;;;;;;;8.60;4.80;;;2.30;99.90;;;;;;5024791;28;20060;-75
2021/12/09 11:48:25;;;;;;;8.80;5.07;;;2.30;99.90;;;;;;5055161;28;20099;-76
2021/12/09 11:50:56;;;;;;;7.90;4.65;;;2.30;99.90;;;;;;5054281;28;20120;-77
2021/12/09 11:53:29;;;;;;;9.07;4.05;;;2.30;99.90;;;;;;5054828;28;20055;-75
2021/12/09 11:56:09;;;;;;;7.68;5.13;;;2.30;99.90;;;;;;5054893;28;20045;-76
2021/12/09 11:58:56;;;;;;;8.00;4.97;;;2.30;99.90;;;;;;5032196;28;20403;-74
2021/12/09 12:18:45;;;;;;;6.18;4.43;;;2.30;99.90;;;;;;5029073;28;20140;-76
2021/12/09 12:21:39;;;;;;;10.52;4.95;;;2.30;99.90;;;;;;5030074;28;20132;-76
2021/12/09 12:27:14;;;;;;;22.02;12.75;;;2.30;99.90;;;;;;5030608;28;20482;-76
2021/12/09 12:41:13;;;;;;;5.43;4.43;;;2.10;99.90;;;;;;5037105;28;20048;-76
2021/12/09 12:43:56;;;;;;;10.93;4.28;;;2.00;99.90;;;;;;5012423;28;20443;-76
2021/12/09 12:49:28;;;;;;;7.07;4.47;;;2.10;99.90;;;;;;5049675;28;20505;-76
2021/12/09 12:52:21;;;;;;;7.55;4.13;;;2.00;99.90;;;;;;5034214;28;20444;-76
2021/12/09 12:54:51;;;;;;;8.32;4.43;;;2.10;99.90;;;;;;5031257;28;20400;-76
2021/12/09 12:57:30;;;;;;;9.00;4.70;;;2.10;99.90;;;;;;5030138;28;20389;-76
2021/12/09 13:00:16;;;;;;;6.57;4.93;;;2.00;99.90;;;;;;5029651;28;20046;-76
2021/12/09 13:21:57;;;;;;;7.15;4.90;;;1.90;99.90;;;;;;5038664;28;20470;-76
2021/12/09 13:36:43;;;;;;;;;;;1.90;99.90;;;;;;5017266;28;20454;-76
2021/12/09 13:47:45;;;;;;;9.98;6.05;;;1.90;99.90;;;;;;5025340;28;20579;-75
2021/12/09 13:50:46;;;;;;;8.25;5.50;;;1.90;99.90;;;;;;5015171;28;20065;-75
2021/12/09 13:56:10;;;;;;;6.60;5.00;;;1.90;99.90;;;;;;5020229;28;20046;-75
2021/12/09 13:58:48;;;;;;;8.20;5.30;;;1.90;99.90;;;;;;5039379;28;20141;-74
2021/12/09 14:01:17;;;;;;;6.78;3.95;;;1.90;99.90;;;;;;5052932;28;20069;-75
2021/12/09 14:03:49;;;;;;;10.48;6.35;;;1.90;99.90;;;;;;5052536;28;20086;-75
2021/12/09 14:06:16;;;;;;;11.93;5.30;;;1.90;99.90;;;;;;5040342;28;20066;-74
2021/12/09 14:08:52;;;;;;;10.60;5.28;;;1.90;99.90;;;;;;5013113;28;20497;-74
2021/12/09 14:11:25;;;;;;;9.05;5.22;;;1.90;99.90;;;;;;5012825;28;20496;-74
2021/12/09 14:14:02;;;;;;;7.00;4.22;;;1.90;99.90;;;;;;5005169;28;20124;-76
2021/12/09 14:16:44;;;;;;;8.05;5.20;;;1.90;99.90;;;;;;5005653;28;20133;-75
2021/12/09 14:21:46;;;;;;;8.68;4.75;;;1.80;99.90;;;;;;5023685;28;20033;-75
2021/12/09 14:24:21;;;;;;;9.10;4.60;;;1.80;99.90;;;;;;5025200;28;20065;-75
2021/12/09 14:26:56;;;;;;;10.93;6.15;;;1.80;99.90;;;;;;5023201;28;20042;-75
2021/12/09 14:29:25;;;;;;;9.18;5.93;;;1.80;99.90;;;;;;5020766;28;20099;-74
2021/12/09 14:31:58;;;;;;;;;;;1.80;99.90;;;;;;5013241;28;20140;-74
2021/12/09 14:34:28;;;;;;;9.13;5.60;;;1.80;99.90;;;;;;5012535;28;20027;-74
2021/12/09 14:37:01;;;;;;;10.40;5.32;;;1.80;99.90;;;;;;5012616;28;20132;-75
2021/12/09 14:39:28;;;;;;;8.85;5.53;;;1.70;99.90;;;;;;4995534;28;20546;-75
2021/12/09 14:42:06;;;;;;;8.98;5.88;;;1.70;99.90;;;;;;5029003;28;20124;-75
2021/12/09 14:44:34;;;;;;;9.68;6.47;;;1.70;99.90;;;;;;5014646;28;20107;-74
2021/12/09 14:47:08;;;;;;;9.25;6.13;;;1.70;99.90;;;;;;5031808;28;20081;-74
2021/12/09 14:49:49;;;;;;;10.05;5.93;;;1.70;99.90;;;;;;5031723;28;20045;-77
2021/12/09 14:52:46;;;;;;;7.22;4.55;;;1.70;99.90;;;;;;5031465;28;20049;-76